sensor_id;sensor_type;location;lat;lon;timestamp;pressure;altitude;pressure_sealevel;temperature;humidity
20909;BME280;10614;53.198;6.570;2022-10-16T00:00:47;100832.59;;;12.31;100.00
20909;BME280;10614;53.198;6.570;2022-10-16T00:02:49;100846.72;;;12.30;100.00
20909;BME280;10614;53.198;6.570;2022-10-16T00:04:51;100833.53;;;12.30;100.00
20909;BME280;10614;53.198;6.570;2022-10-16T00:06:52;100832.59;;;12.31;100.00
20909;BME280;10614;53.198;6.570;2022-10-16T00:08:54;100837.97;;;12.29;100.00
20909;BME280;10614;53.198;6.570;2022-10-16T00:11:00;100833.53;;;12.30;100.00
20909;BME280;10614;53.198;6.570;2022-10-16T00:13:02;100831.81;;;12.29;100.00
20909;BME280;10614;53.198;6.570;2022-10-16T00:15:06;100833.53;;;12.30;100.00
20909;BME280;10614;53.198;6.570;2022-10-16T00:17:08;100840.59;;;12.29;100.00
20909;BME280;10614;53.198;6.570;2022-10-16T00:19:10;100833.53;;;12.30;100.00
20909;BME280;10614;53.198;6.570;2022-10-16T00:21:15;100838.88;;;12.28;100.00
20909;BME280;10614;53.198;6.570;2022-10-16T00:23:17;100840.59;;;12.29;100.00
20909;BME280;10614;53.198;6.570;2022-10-16T00:25:18;100837.97;;;12.29;100.00
20909;BME280;10614;53.198;6.570;2022-10-16T00:27:20;100836.16;;;12.30;100.00
20909;BME280;10614;53.198;6.570;2022-10-16T00:29:22;100826.53;;;12.29;100.00
20909;BME280;10614;53.198;6.570;2022-10-16T00:31:25;100830.03;;;12.29;100.00
20909;BME280;10614;53.198;6.570;2022-10-16T00:33:26;100834.53;;;12.27;100.00
20909;BME280;10614;53.198;6.570;2022-10-16T00:35:28;100833.66;;;12.27;100.00
20909;BME280;10614;53.198;6.570;2022-10-16T00:37:30;100834.53;;;12.27;100.00
20909;BME280;10614;53.198;6.570;2022-10-16T00:39:31;100829.25;;;12.27;100.00
20909;BME280;10614;53.198;6.570;2022-10-16T00:41:34;100829.25;;;12.27;100.00
20909;BME280;10614;53.198;6.570;2022-10-16T00:43:38;100827.47;;;12.28;100.00
20909;BME280;10614;53.198;6.570;2022-10-16T00:45:41;100828.38;;;12.27;100.00
20909;BME280;10614;53.198;6.570;2022-10-16T00:47:45;100826.63;;;12.27;100.00
20909;BME280;10614;53.198;6.570;2022-10-16T00:49:51;100825.75;;;12.27;100.00
20909;BME280;10614;53.198;6.570;2022-10-16T00:51:54;100821.34;;;12.27;100.00
20909;BME280;10614;53.198;6.570;2022-10-16T00:53:56;100822.25;;;12.26;100.00
20909;BME280;10614;53.198;6.570;2022-10-16T00:55:58;100825.63;;;12.30;100.00
20909;BME280;10614;53.198;6.570;2022-10-16T00:58:00;100830.03;;;12.29;100.00
20909;BME280;10614;53.198;6.570;2022-10-16T01:00:08;100830.03;;;12.29;100.00
20909;BME280;10614;53.198;6.570;2022-10-16T01:02:14;100822.13;;;12.29;100.00
20909;BME280;10614;53.198;6.570;2022-10-16T01:04:18;100811.56;;;12.29;100.00
20909;BME280;10614;53.198;6.570;2022-10-16T01:06:24;100813.41;;;12.27;100.00
20909;BME280;10614;53.198;6.570;2022-10-16T01:08:34;100810.69;;;12.29;100.00
20909;BME280;10614;53.198;6.570;2022-10-16T01:10:43;100808.06;;;12.29;100.00
20909;BME280;10614;53.198;6.570;2022-10-16T01:12:51;100804.56;;;12.28;100.00
20909;BME280;10614;53.198;6.570;2022-10-16T01:14:59;100807.13;;;12.30;100.00
20909;BME280;10614;53.198;6.570;2022-10-16T01:17:06;100808.94;;;12.29;100.00
20909;BME280;10614;53.198;6.570;2022-10-16T01:19:15;100815.91;;;12.30;100.00
20909;BME280;10614;53.198;6.570;2022-10-16T01:21:23;100822.97;;;12.30;100.00
20909;BME280;10614;53.198;6.570;2022-10-16T01:23:37;100813.25;;;12.30;100.00
20909;BME280;10614;53.198;6.570;2022-10-16T01:26:03;100813.25;;;12.30;100.00
20909;BME280;10614;53.198;6.570;2022-10-16T01:28:14;100823.03;;;12.28;100.00
20909;BME280;10614;53.198;6.570;2022-10-16T01:30:21;100816.75;;;12.31;100.00
20909;BME280;10614;53.198;6.570;2022-10-16T01:32:32;100815.84;;;12.32;100.00
20909;BME280;10614;53.198;6.570;2022-10-16T01:34:37;100826.47;;;12.30;100.00
20909;BME280;10614;53.198;6.570;2022-10-16T01:36:47;100826.41;;;12.32;100.00
20909;BME280;10614;53.198;6.570;2022-10-16T01:38:52;100830.91;;;12.30;100.00
20909;BME280;10614;53.198;6.570;2022-10-16T01:41:00;100830.91;;;12.30;100.00
20909;BME280;10614;53.198;6.570;2022-10-16T01:43:04;100819.41;;;12.31;100.00
20909;BME280;10614;53.198;6.570;2022-10-16T01:45:12;100828.25;;;12.30;100.00
20909;BME280;10614;53.198;6.570;2022-10-16T01:47:14;100832.59;;;12.31;100.00
20909;BME280;10614;53.198;6.570;2022-10-16T01:49:17;100836.16;;;12.30;100.00
20909;BME280;10614;53.198;6.570;2022-10-16T01:51:20;100830.91;;;12.30;100.00
20909;BME280;10614;53.198;6.570;2022-10-16T01:53:23;100835.22;;;12.31;100.00
20909;BME280;10614;53.198;6.570;2022-10-16T01:55:28;100828.16;;;12.31;100.00
20909;BME280;10614;53.198;6.570;2022-10-16T01:57:31;100828.16;;;12.31;100.00
20909;BME280;10614;53.198;6.570;2022-10-16T01:59:35;100828.25;;;12.30;100.00
20909;BME280;10614;53.198;6.570;2022-10-16T02:01:42;100831.69;;;12.32;100.00
20909;BME280;10614;53.198;6.570;2022-10-16T02:03:45;100836.06;;;12.31;100.00
20909;BME280;10614;53.198;6.570;2022-10-16T02:05:50;100830.81;;;12.31;100.00
20909;BME280;10614;53.198;6.570;2022-10-16T02:07:52;100829.94;;;12.31;100.00
20909;BME280;10614;53.198;6.570;2022-10-16T02:09:54;100830.75;;;12.33;100.00
20909;BME280;10614;53.198;6.570;2022-10-16T02:11:57;100830.91;;;12.30;100.00
20909;BME280;10614;53.198;6.570;2022-10-16T02:14:04;100833.44;;;12.31;100.00
20909;BME280;10614;53.198;6.570;2022-10-16T02:16:06;100834.31;;;12.32;100.00
20909;BME280;10614;53.198;6.570;2022-10-16T02:18:10;100836.88;;;12.33;100.00
20909;BME280;10614;53.198;6.570;2022-10-16T02:20:11;100824.53;;;12.34;100.00
20909;BME280;10614;53.198;6.570;2022-10-16T02:22:16;100829.78;;;12.34;100.00
20909;BME280;10614;53.198;6.570;2022-10-16T02:24:24;100836.00;;;12.33;100.00
20909;BME280;10614;53.198;6.570;2022-10-16T02:26:35;100833.31;;;12.34;100.00
20909;BME280;10614;53.198;6.570;2022-10-16T02:28:42;100834.16;;;12.35;100.00
20909;BME280;10614;53.198;6.570;2022-10-16T02:30:49;100832.38;;;12.35;100.00
20909;BME280;10614;53.198;6.570;2022-10-16T02:32:53;100834.16;;;12.35;100.00
20909;BME280;10614;53.198;6.570;2022-10-16T02:34:58;100827.09;;;12.35;100.00
20909;BME280;10614;53.198;6.570;2022-10-16T02:37:01;100823.53;;;12.36;100.00
20909;BME280;10614;53.198;6.570;2022-10-16T02:39:06;100829.66;;;12.37;100.00
20909;BME280;10614;53.198;6.570;2022-10-16T02:41:09;100827.09;;;12.35;100.00
20909;BME280;10614;53.198;6.570;2022-10-16T02:43:11;100823.53;;;12.36;100.00
20909;BME280;10614;53.198;6.570;2022-10-16T02:45:12;100829.66;;;12.37;100.00
20909;BME280;10614;53.198;6.570;2022-10-16T02:47:14;100827.88;;;12.37;100.00
20909;BME280;10614;53.198;6.570;2022-10-16T02:49:16;100842.78;;;12.38;100.00
20909;BME280;10614;53.198;6.570;2022-10-16T02:51:19;100828.72;;;12.38;100.00
20909;BME280;10614;53.198;6.570;2022-10-16T02:53:21;100841.94;;;12.38;100.00
20909;BME280;10614;53.198;6.570;2022-10-16T02:55:22;100841.06;;;12.37;100.00
20909;BME280;10614;53.198;6.570;2022-10-16T02:57:24;100844.56;;;12.38;100.00
20909;BME280;10614;53.198;6.570;2022-10-16T02:59:26;100841.03;;;12.39;100.00
20909;BME280;10614;53.198;6.570;2022-10-16T03:01:27;100841.88;;;12.39;100.00
20909;BME280;10614;53.198;6.570;2022-10-16T03:03:29;100847.09;;;12.41;100.00
20909;BME280;10614;53.198;6.570;2022-10-16T03:05:30;100844.44;;;12.41;100.00
20909;BME280;10614;53.198;6.570;2022-10-16T03:07:33;100847.09;;;12.41;100.00
20909;BME280;10614;53.198;6.570;2022-10-16T03:09:35;100834.78;;;12.40;100.00
20909;BME280;10614;53.198;6.570;2022-10-16T03:11:37;100848.84;;;12.40;100.00
20909;BME280;10614;53.198;6.570;2022-10-16T03:13:38;100853.13;;;12.43;100.00
20909;BME280;10614;53.198;6.570;2022-10-16T03:15:40;100851.25;;;12.45;100.00
20909;BME280;10614;53.198;6.570;2022-10-16T03:17:41;100849.56;;;12.44;100.00
20909;BME280;10614;53.198;6.570;2022-10-16T03:19:43;100848.63;;;12.45;100.00
20909;BME280;10614;53.198;6.570;2022-10-16T03:21:45;100840.69;;;12.45;100.00
20909;BME280;10614;53.198;6.570;2022-10-16T03:23:48;100852.22;;;12.44;100.00
20909;BME280;10614;53.198;6.570;2022-10-16T03:25:50;100848.63;;;12.45;100.00
20909;BME280;10614;53.198;6.570;2022-10-16T03:27:51;100845.91;;;12.46;100.00
20909;BME280;10614;53.198;6.570;2022-10-16T03:29:53;100851.19;;;12.46;100.00
20909;BME280;10614;53.198;6.570;2022-10-16T03:31:55;100865.25;;;12.47;100.00
20909;BME280;10614;53.198;6.570;2022-10-16T03:33:57;100859.06;;;12.48;100.00
20909;BME280;10614;53.198;6.570;2022-10-16T03:35:58;100850.19;;;12.49;100.00
20909;BME280;10614;53.198;6.570;2022-10-16T03:38:00;100844.06;;;12.49;100.00
20909;BME280;10614;53.198;6.570;2022-10-16T03:40:04;100862.56;;;12.49;100.00
20909;BME280;10614;53.198;6.570;2022-10-16T03:42:05;100862.56;;;12.49;100.00
20909;BME280;10614;53.198;6.570;2022-10-16T03:44:07;100867.81;;;12.49;100.00
20909;BME280;10614;53.198;6.570;2022-10-16T03:46:09;100864.34;;;12.48;100.00
20909;BME280;10614;53.198;6.570;2022-10-16T03:48:11;100856.47;;;12.46;100.00
20909;BME280;10614;53.198;6.570;2022-10-16T03:50:12;100859.19;;;12.45;100.00
20909;BME280;10614;53.198;6.570;2022-10-16T03:52:14;100867.97;;;12.45;100.00
20909;BME280;10614;53.198;6.570;2022-10-16T03:54:15;100856.63;;;12.43;100.00
20909;BME280;10614;53.198;6.570;2022-10-16T03:56:18;100871.47;;;12.46;100.00
20909;BME280;10614;53.198;6.570;2022-10-16T03:58:20;100868.84;;;12.46;100.00
20909;BME280;10614;53.198;6.570;2022-10-16T04:00:21;100871.38;;;12.48;100.00
20909;BME280;10614;53.198;6.570;2022-10-16T04:02:23;100873.16;;;12.47;100.00
20909;BME280;10614;53.198;6.570;2022-10-16T04:04:25;100874.13;;;12.46;100.00
20909;BME280;10614;53.198;6.570;2022-10-16T04:06:26;100869.75;;;12.45;100.00
20909;BME280;10614;53.198;6.570;2022-10-16T04:08:28;100876.75;;;12.46;100.00
20909;BME280;10614;53.198;6.570;2022-10-16T04:10:30;100872.38;;;12.45;100.00
20909;BME280;10614;53.198;6.570;2022-10-16T04:12:33;100873.31;;;12.44;100.00
20909;BME280;10614;53.198;6.570;2022-10-16T04:14:35;100876.03;;;12.42;100.00
20909;BME280;10614;53.198;6.570;2022-10-16T04:16:36;100872.59;;;12.40;100.00
20909;BME280;10614;53.198;6.570;2022-10-16T04:18:38;100885.91;;;12.39;100.00
20909;BME280;10614;53.198;6.570;2022-10-16T04:20:40;100891.16;;;12.39;100.00
20909;BME280;10614;53.198;6.570;2022-10-16T04:22:42;100890.38;;;12.37;100.00
20909;BME280;10614;53.198;6.570;2022-10-16T04:24:43;100890.44;;;12.35;100.00
20909;BME280;10614;53.198;6.570;2022-10-16T04:26:45;100889.59;;;12.35;100.00
20909;BME280;10614;53.198;6.570;2022-10-16T04:28:48;100900.94;;;12.37;100.00
20909;BME280;10614;53.198;6.570;2022-10-16T04:30:49;100903.59;;;12.37;100.00
20909;BME280;10614;53.198;6.570;2022-10-16T04:32:52;100914.16;;;12.37;100.00
20909;BME280;10614;53.198;6.570;2022-10-16T04:34:53;100908.91;;;12.35;100.00
20909;BME280;10614;53.198;6.570;2022-10-16T04:36:55;100908.91;;;12.35;100.00
20909;BME280;10614;53.198;6.570;2022-10-16T04:38:56;100920.41;;;12.34;100.00
20909;BME280;10614;53.198;6.570;2022-10-16T04:40:58;100911.63;;;12.34;100.00
20909;BME280;10614;53.198;6.570;2022-10-16T04:43:00;100905.59;;;12.32;100.00
20909;BME280;10614;53.198;6.570;2022-10-16T04:45:03;100922.19;;;12.34;100.00
20909;BME280;10614;53.198;6.570;2022-10-16T04:47:05;100927.47;;;12.34;100.00
20909;BME280;10614;53.198;6.570;2022-10-16T04:49:07;100928.41;;;12.33;100.00
20909;BME280;10614;53.198;6.570;2022-10-16T04:51:08;100936.31;;;12.33;100.00
20909;BME280;10614;53.198;6.570;2022-10-16T04:53:10;100936.31;;;12.33;100.00
20909;BME280;10614;53.198;6.570;2022-10-16T04:55:12;100945.94;;;12.34;100.00
20909;BME280;10614;53.198;6.570;2022-10-16T04:57:14;100954.72;;;12.34;100.00
20909;BME280;10614;53.198;6.570;2022-10-16T04:59:16;100953.78;;;12.35;100.00
20909;BME280;10614;53.198;6.570;2022-10-16T05:01:20;100950.25;;;12.36;100.00
20909;BME280;10614;53.198;6.570;2022-10-16T05:03:21;100954.66;;;12.36;100.00
20909;BME280;10614;53.198;6.570;2022-10-16T05:05:23;100944.25;;;12.33;100.00
20909;BME280;10614;53.198;6.570;2022-10-16T05:07:25;100945.88;;;12.35;100.00
20909;BME280;10614;53.198;6.570;2022-10-16T05:09:26;100945.94;;;12.34;100.00
20909;BME280;10614;53.198;6.570;2022-10-16T05:11:28;100938.09;;;12.32;100.00
20909;BME280;10614;53.198;6.570;2022-10-16T05:13:29;100947.81;;;12.32;100.00
20909;BME280;10614;53.198;6.570;2022-10-16T05:15:31;100940.75;;;12.32;100.00
20909;BME280;10614;53.198;6.570;2022-10-16T05:17:34;100949.50;;;12.33;100.00
20909;BME280;10614;53.198;6.570;2022-10-16T05:19:36;100953.94;;;12.32;100.00
20909;BME280;10614;53.198;6.570;2022-10-16T05:21:37;100960.06;;;12.33;100.00
20909;BME280;10614;53.198;6.570;2022-10-16T05:23:39;100955.72;;;12.32;100.00
20909;BME280;10614;53.198;6.570;2022-10-16T05:25:41;100954.78;;;12.33;100.00
20909;BME280;10614;53.198;6.570;2022-10-16T05:27:42;100951.38;;;12.31;100.00
20909;BME280;10614;53.198;6.570;2022-10-16T05:29:44;100956.72;;;12.29;100.00
20909;BME280;10614;53.198;6.570;2022-10-16T05:31:50;100960.22;;;12.30;100.00
20909;BME280;10614;53.198;6.570;2022-10-16T05:33:52;100961.91;;;12.31;100.00
20909;BME280;10614;53.198;6.570;2022-10-16T05:36:00;100966.34;;;12.30;100.00
20909;BME280;10614;53.198;6.570;2022-10-16T05:38:03;100965.50;;;12.30;100.00
20909;BME280;10614;53.198;6.570;2022-10-16T05:40:05;100954.94;;;12.30;100.00
20909;BME280;10614;53.198;6.570;2022-10-16T05:42:07;100960.22;;;12.30;100.00
20909;BME280;10614;53.198;6.570;2022-10-16T05:44:09;100965.50;;;12.30;100.00
20909;BME280;10614;53.198;6.570;2022-10-16T05:46:11;100958.50;;;12.29;100.00
20909;BME280;10614;53.198;6.570;2022-10-16T05:48:12;100965.63;;;12.27;100.00
20909;BME280;10614;53.198;6.570;2022-10-16T05:50:15;100958.59;;;12.27;100.00
20909;BME280;10614;53.198;6.570;2022-10-16T05:52:17;100970.00;;;12.28;100.00
20909;BME280;10614;53.198;6.570;2022-10-16T05:54:19;100977.06;;;12.27;100.00
20909;BME280;10614;53.198;6.570;2022-10-16T05:56:20;100964.72;;;12.28;100.00
20909;BME280;10614;53.198;6.570;2022-10-16T05:58:22;100974.31;;;12.29;100.00
20909;BME280;10614;53.198;6.570;2022-10-16T06:00:24;100975.22;;;12.29;100.00
20909;BME280;10614;53.198;6.570;2022-10-16T06:02:26;100973.41;;;12.30;100.00
20909;BME280;10614;53.198;6.570;2022-10-16T06:04:27;100990.25;;;12.27;100.00
20909;BME280;10614;53.198;6.570;2022-10-16T06:06:30;100993.75;;;12.28;100.00
20909;BME280;10614;53.198;6.570;2022-10-16T06:08:32;100997.22;;;12.28;100.00
20909;BME280;10614;53.198;6.570;2022-10-16T06:10:34;100994.66;;;12.27;100.00
20909;BME280;10614;53.198;6.570;2022-10-16T06:12:35;101005.16;;;12.28;100.00
20909;BME280;10614;53.198;6.570;2022-10-16T06:14:37;101005.16;;;12.28;100.00
20909;BME280;10614;53.198;6.570;2022-10-16T06:16:38;101002.50;;;12.28;100.00
20909;BME280;10614;53.198;6.570;2022-10-16T06:18:40;101004.31;;;12.28;100.00
20909;BME280;10614;53.198;6.570;2022-10-16T06:20:41;101004.25;;;12.29;100.00
20909;BME280;10614;53.198;6.570;2022-10-16T06:22:44;101003.31;;;12.30;100.00
20909;BME280;10614;53.198;6.570;2022-10-16T06:24:46;101003.31;;;12.30;100.00
20909;BME280;10614;53.198;6.570;2022-10-16T06:26:49;101002.44;;;12.30;100.00
20909;BME280;10614;53.198;6.570;2022-10-16T06:28:51;101005.09;;;12.30;100.00
20909;BME280;10614;53.198;6.570;2022-10-16T06:30:58;101000.59;;;12.32;100.00
20909;BME280;10614;53.198;6.570;2022-10-16T06:33:00;101004.94;;;12.33;100.00
20909;BME280;10614;53.198;6.570;2022-10-16T06:35:02;100999.66;;;12.33;100.00
20909;BME280;10614;53.198;6.570;2022-10-16T06:37:03;101002.31;;;12.33;100.00
20909;BME280;10614;53.198;6.570;2022-10-16T06:39:06;101014.50;;;12.35;100.00
20909;BME280;10614;53.198;6.570;2022-10-16T06:41:10;101005.69;;;12.36;100.00
20909;BME280;10614;53.198;6.570;2022-10-16T06:43:12;101017.94;;;12.37;100.00
20909;BME280;10614;53.198;6.570;2022-10-16T06:45:14;101011.72;;;12.38;100.00
20909;BME280;10614;53.198;6.570;2022-10-16T06:47:15;101022.38;;;12.37;100.00
20909;BME280;10614;53.198;6.570;2022-10-16T06:49:17;101023.16;;;12.39;100.00
20909;BME280;10614;53.198;6.570;2022-10-16T06:51:24;101038.06;;;12.40;100.00
20909;BME280;10614;53.198;6.570;2022-10-16T06:53:27;101047.63;;;12.42;100.00
20909;BME280;10614;53.198;6.570;2022-10-16T06:55:31;101039.66;;;12.44;100.00
20909;BME280;10614;53.198;6.570;2022-10-16T06:57:32;101037.81;;;12.46;100.00
20909;BME280;10614;53.198;6.570;2022-10-16T06:59:34;101054.50;;;12.46;100.00
20909;BME280;10614;53.198;6.570;2022-10-16T07:01:36;101043.94;;;12.46;100.00
20909;BME280;10614;53.198;6.570;2022-10-16T07:03:38;101053.56;;;12.48;100.00
20909;BME280;10614;53.198;6.570;2022-10-16T07:05:40;101051.78;;;12.48;100.00
20909;BME280;10614;53.198;6.570;2022-10-16T07:07:42;101059.63;;;12.50;100.00
20909;BME280;10614;53.198;6.570;2022-10-16T07:09:43;101064.06;;;12.49;100.00
20909;BME280;10614;53.198;6.570;2022-10-16T07:11:46;101064.91;;;12.50;100.00
20909;BME280;10614;53.198;6.570;2022-10-16T07:13:48;101069.28;;;12.51;100.00
20909;BME280;10614;53.198;6.570;2022-10-16T07:15:51;101077.19;;;12.51;100.00
20909;BME280;10614;53.198;6.570;2022-10-16T07:17:52;101078.97;;;12.50;100.00
20909;BME280;10614;53.198;6.570;2022-10-16T07:19:54;101091.25;;;12.51;100.00
20909;BME280;10614;53.198;6.570;2022-10-16T07:21:56;101086.81;;;12.52;100.00
20909;BME280;10614;53.198;6.570;2022-10-16T07:23:59;101106.16;;;12.52;100.00
20909;BME280;10614;53.198;6.570;2022-10-16T07:26:01;101107.03;;;12.53;100.00
20909;BME280;10614;53.198;6.570;2022-10-16T07:28:04;101112.22;;;12.54;100.00
20909;BME280;10614;53.198;6.570;2022-10-16T07:30:07;101116.59;;;12.55;100.00
20909;BME280;10614;53.198;6.570;2022-10-16T07:32:09;101126.22;;;12.56;100.00
20909;BME280;10614;53.198;6.570;2022-10-16T07:34:12;101125.38;;;12.56;100.00
20909;BME280;10614;53.198;6.570;2022-10-16T07:36:14;101124.44;;;12.57;100.00
20909;BME280;10614;53.198;6.570;2022-10-16T07:38:17;101141.22;;;12.56;100.00
20909;BME280;10614;53.198;6.570;2022-10-16T07:40:19;101141.16;;;12.57;100.00
20909;BME280;10614;53.198;6.570;2022-10-16T07:42:20;101141.16;;;12.57;100.00
20909;BME280;10614;53.198;6.570;2022-10-16T07:44:23;101134.94;;;12.58;100.00
20909;BME280;10614;53.198;6.570;2022-10-16T07:46:26;101137.59;;;12.58;100.00
20909;BME280;10614;53.198;6.570;2022-10-16T07:48:29;101146.38;;;12.59;100.00
20909;BME280;10614;53.198;6.570;2022-10-16T07:50:31;101150.75;;;12.60;100.00
20909;BME280;10614;53.198;6.570;2022-10-16T07:52:33;101148.09;;;12.60;100.00
20909;BME280;10614;53.198;6.570;2022-10-16T07:54:35;101145.38;;;12.61;100.00
20909;BME280;10614;53.198;6.570;2022-10-16T07:56:36;101153.22;;;12.63;100.00
20909;BME280;10614;53.198;6.570;2022-10-16T07:58:38;101155.88;;;12.63;100.00
20909;BME280;10614;53.198;6.570;2022-10-16T08:00:41;101152.28;;;12.64;100.00
20909;BME280;10614;53.198;6.570;2022-10-16T08:02:43;101153.19;;;12.64;100.00
20909;BME280;10614;53.198;6.570;2022-10-16T08:04:46;101158.38;;;12.66;100.00
20909;BME280;10614;53.198;6.570;2022-10-16T08:06:48;101154.03;;;12.65;100.00
20909;BME280;10614;53.198;6.570;2022-10-16T08:08:50;101152.28;;;12.64;100.00
20909;BME280;10614;53.198;6.570;2022-10-16T08:10:52;101156.66;;;12.65;100.00
20909;BME280;10614;53.198;6.570;2022-10-16T08:12:54;101156.66;;;12.65;100.00
20909;BME280;10614;53.198;6.570;2022-10-16T08:14:56;101169.03;;;12.64;100.00
20909;BME280;10614;53.198;6.570;2022-10-16T08:16:59;101169.78;;;12.66;100.00
20909;BME280;10614;53.198;6.570;2022-10-16T08:19:02;101161.81;;;12.68;100.00
20909;BME280;10614;53.198;6.570;2022-10-16T08:21:05;101179.38;;;12.69;100.00
20909;BME280;10614;53.198;6.570;2022-10-16T08:23:08;101186.38;;;12.70;100.00
20909;BME280;10614;53.198;6.570;2022-10-16T08:25:10;101191.66;;;12.70;100.00
20909;BME280;10614;53.198;6.570;2022-10-16T08:27:11;101196.94;;;12.70;100.00
20909;BME280;10614;53.198;6.570;2022-10-16T08:29:13;101192.44;;;12.72;100.00
20909;BME280;10614;53.198;6.570;2022-10-16T08:31:16;101198.53;;;12.74;100.00
20909;BME280;10614;53.198;6.570;2022-10-16T08:33:19;101211.59;;;12.77;100.00
20909;BME280;10614;53.198;6.570;2022-10-16T08:35:20;101200.03;;;12.80;100.00
20909;BME280;10614;53.198;6.570;2022-10-16T08:37:22;101206.97;;;12.82;100.00
20909;BME280;10614;53.198;6.570;2022-10-16T08:39:23;101203.28;;;12.86;100.00
20909;BME280;10614;53.198;6.570;2022-10-16T08:41:53;101204.00;;;12.90;100.00
20909;BME280;10614;53.198;6.570;2022-10-16T08:44:12;101200.44;;;12.91;100.00
20909;BME280;10614;53.198;6.570;2022-10-16T08:46:29;101199.50;;;12.92;100.00
20909;BME280;10614;53.198;6.570;2022-10-16T08:48:42;101201.09;;;12.96;100.00
20909;BME280;10614;53.198;6.570;2022-10-16T08:50:45;101212.44;;;12.98;100.00
20909;BME280;10614;53.198;6.570;2022-10-16T08:52:49;101216.69;;;13.02;100.00
20909;BME280;10614;53.198;6.570;2022-10-16T08:54:53;101223.66;;;13.03;100.00
20909;BME280;10614;53.198;6.570;2022-10-16T08:56:56;101233.25;;;13.06;100.00
20909;BME280;10614;53.198;6.570;2022-10-16T08:59:01;101235.63;;;13.12;100.00
20909;BME280;10614;53.198;6.570;2022-10-16T09:01:12;101248.78;;;13.14;100.00
20909;BME280;10614;53.198;6.570;2022-10-16T09:03:19;101251.13;;;13.20;100.00
20909;BME280;10614;53.198;6.570;2022-10-16T09:05:42;101257.00;;;13.26;100.00
20909;BME280;10614;53.198;6.570;2022-10-16T09:07:54;101255.00;;;13.33;100.00
20909;BME280;10614;53.198;6.570;2022-10-16T09:10:07;101267.84;;;13.41;100.00
20909;BME280;10614;53.198;6.570;2022-10-16T09:12:16;101262.44;;;13.44;100.00
20909;BME280;10614;53.198;6.570;2022-10-16T09:14:36;101261.44;;;13.46;100.00
20909;BME280;10614;53.198;6.570;2022-10-16T09:16:46;101268.38;;;13.49;100.00
20909;BME280;10614;53.198;6.570;2022-10-16T09:18:54;101275.22;;;13.53;100.00
20909;BME280;10614;53.198;6.570;2022-10-16T09:21:05;101271.66;;;13.54;100.00
20909;BME280;10614;53.198;6.570;2022-10-16T09:23:17;101281.25;;;13.57;100.00
20909;BME280;10614;53.198;6.570;2022-10-16T09:25:21;101266.19;;;13.59;100.00
20909;BME280;10614;53.198;6.570;2022-10-16T09:27:23;101272.09;;;13.64;100.00
20909;BME280;10614;53.198;6.570;2022-10-16T09:29:24;101279.03;;;13.66;100.00
20909;BME280;10614;53.198;6.570;2022-10-16T09:31:26;101287.72;;;13.70;100.00
20909;BME280;10614;53.198;6.570;2022-10-16T09:33:30;101293.78;;;13.72;100.00
20909;BME280;10614;53.198;6.570;2022-10-16T09:35:37;101311.22;;;13.76;100.00
20909;BME280;10614;53.198;6.570;2022-10-16T09:37:42;101306.66;;;13.80;100.00
20909;BME280;10614;53.198;6.570;2022-10-16T09:39:46;101312.75;;;13.82;100.00
20909;BME280;10614;53.198;6.570;2022-10-16T09:41:48;101308.31;;;13.82;100.00
20909;BME280;10614;53.198;6.570;2022-10-16T09:43:53;101316.94;;;13.86;100.00
20909;BME280;10614;53.198;6.570;2022-10-16T09:45:58;101314.22;;;13.87;100.00
20909;BME280;10614;53.198;6.570;2022-10-16T09:48:10;101309.72;;;13.89;100.00
20909;BME280;10614;53.198;6.570;2022-10-16T09:50:21;101318.41;;;13.93;100.00
20909;BME280;10614;53.198;6.570;2022-10-16T09:52:24;101317.47;;;13.94;100.00
20909;BME280;10614;53.198;6.570;2022-10-16T09:54:27;101317.41;;;13.96;100.00
20909;BME280;10614;53.198;6.570;2022-10-16T09:56:30;101310.22;;;13.98;100.00
20909;BME280;10614;53.198;6.570;2022-10-16T09:58:33;101331.34;;;13.99;100.00
20909;BME280;10614;53.198;6.570;2022-10-16T10:00:34;101320.69;;;14.01;100.00
20909;BME280;10614;53.198;6.570;2022-10-16T10:02:37;101317.94;;;14.02;100.00
20909;BME280;10614;53.198;6.570;2022-10-16T10:04:42;101321.31;;;14.06;100.00
20909;BME280;10614;53.198;6.570;2022-10-16T10:06:47;101324.75;;;14.08;100.00
20909;BME280;10614;53.198;6.570;2022-10-16T10:08:54;101317.59;;;14.10;100.00
20909;BME280;10614;53.198;6.570;2022-10-16T10:10:57;101328.03;;;14.13;100.00
20909;BME280;10614;53.198;6.570;2022-10-16T10:12:59;101326.25;;;14.13;100.00
20909;BME280;10614;53.198;6.570;2022-10-16T10:15:04;101323.38;;;14.18;100.00
20909;BME280;10614;53.198;6.570;2022-10-16T10:17:16;101330.31;;;14.21;100.00
20909;BME280;10614;53.198;6.570;2022-10-16T10:19:19;101328.41;;;14.24;100.00
20909;BME280;10614;53.198;6.570;2022-10-16T10:21:21;101342.28;;;14.29;100.00
20909;BME280;10614;53.198;6.570;2022-10-16T10:23:24;101347.34;;;14.34;100.00
20909;BME280;10614;53.198;6.570;2022-10-16T10:25:41;101353.28;;;14.39;100.00
20909;BME280;10614;53.198;6.570;2022-10-16T10:28:27;101347.84;;;14.42;100.00
20909;BME280;10614;53.198;6.570;2022-10-16T10:30:37;101357.44;;;14.45;100.00
20909;BME280;10614;53.198;6.570;2022-10-16T10:32:48;101349.41;;;14.46;100.00
20909;BME280;10614;53.198;6.570;2022-10-16T10:35:07;101371.13;;;14.54;100.00
20909;BME280;10614;53.198;6.570;2022-10-16T10:37:26;101367.47;;;14.57;100.00
20909;BME280;10614;53.198;6.570;2022-10-16T10:39:36;101361.22;;;14.58;100.00